Hyundai Forward — 3EJY9 — position and weather

sailwx.info

Track history (hours):
 
Tides and Currents Weather Stations Pressure Air Temp Water Temp Dewpoint Dewpoint Depression Visibility Wind Speed Wind Dir Waves Ship Positions

Hyundai Forward

Last reported at 2016-May-16 18:04 UTC. Time now 2016-May-28 07:55 UTC.
Position N 09°06' W 079°41'.
Warning: this ship's position is 11 days out of date.

Length 200 m; draft 10.9 m.

Type: Cargo ship. MMSI: 372652000.

Date/timePositionNaut miles runAvg speedWind from/ knotsBaromVisibWave heightAir tempDewpointWater temp
2016-May-16 18:04N 09°06' W 079°41'4 6.7
2016-May-16 17:26N 09°07' W 079°45'4 4.4
2016-May-16 16:33N 09°09' W 079°49'6 5.7
2016-May-16 15:33N 09°12' W 079°54'5 4.7
2016-May-16 14:33N 09°16' W 079°55'0 0.4
2016-May-16 13:34N 09°16' W 079°55'1 0.9
2016-May-16 12:33N 09°17' W 079°55'4 3.6
2016-May-16 11:33N 09°21' W 079°55'7 7.2
2016-May-16 10:33N 09°28' W 079°55'3 2.6
2016-May-16 09:28N 09°31' W 079°54'0 0.4
2016-May-16 08:16N 09°31' W 079°54'1 1.4
2016-May-16 07:33N 09°30' W 079°55'8 7.6
2016-May-16 06:33N 09°22' W 079°54'1 1.0
2016-May-16 05:30N 09°22' W 079°53'0 0.0
2016-May-16 04:33N 09°22' W 079°53'0 0.0
2016-May-16 03:33N 09°22' W 079°53'0 0.0
2016-May-16 02:34N 09°22' W 079°53'0 0.0
2016-May-16 01:31N 09°22' W 079°53'0 0.0
2016-May-16 00:33N 09°22' W 079°53'0 0.0
2016-May-15 23:33N 09°22' W 079°53'0 0.0
2016-May-15 22:33N 09°22' W 079°53'5 4.8
2016-May-15 21:33N 09°26' W 079°54'1110.8
2016-May-15 20:33N 09°37' W 079°51'1010.0
2016-May-15 19:33N 09°46' W 079°47'  
2016-May-10 09:18N 31°06' W 080°03'1317.2
2016-May-10 08:33N 31°15' W 079°52'1615.9
2016-May-10 07:33N 31°26' W 079°38'6913.8
2016-May-10 02:34N 32°13' W 078°38'1716.5
2016-May-10 01:34N 32°24' W 078°24'1716.7
2016-May-10 00:33N 32°35' W 078°10'1717.0
2016-May-09 23:34N 32°47' W 077°55'1717.2
2016-May-09 22:34N 32°58' W 077°40'2117.2
2016-May-09 21:21N 33°12' W 077°21'1316.9
2016-May-09 20:34N 33°22' W 077°10'1717.1
2016-May-09 19:34N 33°33' W 076°55'1717.4
2016-May-09 18:33N 33°45' W 076°39'1717.3
2016-May-09 17:34N 33°57' W 076°24'1717.2
2016-May-09 16:34N 34°09' W 076°09'1615.9
2016-May-09 15:34N 34°20' W 075°55'1413.6
2016-May-09 14:33N 34°30' W 075°44'1313.0
2016-May-09 13:32N 34°40' W 075°33'1412.3
2016-May-09 12:25N 34°50' W 075°22'1111.9
2016-May-09 11:30N 34°58' W 075°13'11713.0
2016-May-09 02:33N 36°51' W 075°50'1312.7
2016-May-09 01:34N 36°58' W 076°03'1412.8
2016-May-09 00:30N 36°57' W 076°20'2 1.8
2016-May-08 23:32N 36°56' W 076°20'0 0.0
2016-May-08 22:05N 36°56' W 076°20'0 0.0
2016-May-08 21:23N 36°56' W 076°20'0 0.0
2016-May-08 20:29N 36°56' W 076°20'0 0.0
2016-May-08 18:32N 36°56' W 076°20'0 0.0
2016-May-08 15:20N 36°56' W 076°20'2 2.1
2016-May-08 14:26N 36°57' W 076°20'1213.1
2016-May-08 13:33N 36°58' W 076°06'1111.0
2016-May-08 12:33N 36°54' W 075°53'8 7.2
2016-May-08 11:29N 36°49' W 075°45'12413.9
2016-May-08 02:33N 38°29' W 074°12'5216.1
2016-May-07 23:19N 39°19' W 073°53'1316.5
2016-May-07 22:33N 39°32' W 073°52'1616.4
2016-May-07 21:33N 39°48' W 073°51'3416.4
2016-May-07 19:29N 40°22' W 073°48'1111.9
2016-May-07 18:33N 40°31' W 073°58'1111.2
2016-May-07 17:33N 40°39' W 074°08'2 1.7
2016-May-07 16:32N 40°40' W 074°08'0 0.0
2016-May-07 15:32N 40°40' W 074°08'0 0.0
2016-May-07 14:32N 40°40' W 074°08'0 0.0
2016-May-07 13:32N 40°40' W 074°08'0 0.0
2016-May-07 12:32N 40°40' W 074°08'0 0.0
2016-May-07 11:32N 40°40' W 074°08'0 0.0
2016-May-07 10:32N 40°40' W 074°08'0 0.0
2016-May-07 09:32N 40°40' W 074°08'0 0.0
2016-May-07 08:32N 40°40' W 074°08'0 0.0
2016-May-07 07:32N 40°40' W 074°08'0 0.0
2016-May-07 06:32N 40°40' W 074°08'0 0.0
2016-May-07 05:32N 40°40' W 074°08'0 0.0
2016-May-07 04:32N 40°40' W 074°08'0 0.0
2016-May-07 03:32N 40°40' W 074°08'0 0.0
2016-May-07 02:32N 40°40' W 074°08'0 0.0
2016-May-07 01:29N 40°40' W 074°08'0 0.0
2016-May-07 00:32N 40°40' W 074°08'0 0.0
2016-May-06 23:32N 40°40' W 074°08'0 0.0
2016-May-06 22:32N 40°40' W 074°08'2 1.7
2016-May-06 21:33N 40°39' W 074°09'6 6.4
2016-May-06 20:33N 40°35' W 074°02'1212.0
2016-May-06 19:33N 40°28' W 073°49'  
Track history (hours):
 
Tides and Currents Weather Stations Pressure Air Temp Water Temp Dewpoint Dewpoint Depression Visibility Wind Speed Wind Dir Waves Ship Positions

Hyundai Forward

Last reported at 2016-May-16 18:04 UTC. Time now 2016-May-28 07:55 UTC.
Position N 09°06' W 079°41'.
Warning: this ship's position is 11 days out of date.

Length 200 m; draft 10.9 m.

Type: Cargo ship. MMSI: 372652000.

Date/timePositionNaut miles runAvg speedWind from/ knotsBaromVisibWave heightAir tempDewpointWater temp
2016-May-16 18:04N 09°06' W 079°41'4 6.7
2016-May-16 17:26N 09°07' W 079°45'4 4.4
2016-May-16 16:33N 09°09' W 079°49'6 5.7
2016-May-16 15:33N 09°12' W 079°54'5 4.7
2016-May-16 14:33N 09°16' W 079°55'0 0.4
2016-May-16 13:34N 09°16' W 079°55'1 0.9
2016-May-16 12:33N 09°17' W 079°55'4 3.6
2016-May-16 11:33N 09°21' W 079°55'7 7.2
2016-May-16 10:33N 09°28' W 079°55'3 2.6
2016-May-16 09:28N 09°31' W 079°54'0 0.4
2016-May-16 08:16N 09°31' W 079°54'1 1.4
2016-May-16 07:33N 09°30' W 079°55'8 7.6
2016-May-16 06:33N 09°22' W 079°54'1 1.0
2016-May-16 05:30N 09°22' W 079°53'0 0.0
2016-May-16 04:33N 09°22' W 079°53'0 0.0
2016-May-16 03:33N 09°22' W 079°53'0 0.0
2016-May-16 02:34N 09°22' W 079°53'0 0.0
2016-May-16 01:31N 09°22' W 079°53'0 0.0
2016-May-16 00:33N 09°22' W 079°53'0 0.0
2016-May-15 23:33N 09°22' W 079°53'0 0.0
2016-May-15 22:33N 09°22' W 079°53'5 4.8
2016-May-15 21:33N 09°26' W 079°54'1110.8
2016-May-15 20:33N 09°37' W 079°51'1010.0
2016-May-15 19:33N 09°46' W 079°47'  
2016-May-10 09:18N 31°06' W 080°03'1317.2
2016-May-10 08:33N 31°15' W 079°52'1615.9
2016-May-10 07:33N 31°26' W 079°38'6913.8
2016-May-10 02:34N 32°13' W 078°38'1716.5
2016-May-10 01:34N 32°24' W 078°24'1716.7
2016-May-10 00:33N 32°35' W 078°10'1717.0
2016-May-09 23:34N 32°47' W 077°55'1717.2
2016-May-09 22:34N 32°58' W 077°40'2117.2
2016-May-09 21:21N 33°12' W 077°21'1316.9
2016-May-09 20:34N 33°22' W 077°10'1717.1
2016-May-09 19:34N 33°33' W 076°55'1717.4
2016-May-09 18:33N 33°45' W 076°39'1717.3
2016-May-09 17:34N 33°57' W 076°24'1717.2
2016-May-09 16:34N 34°09' W 076°09'1615.9
2016-May-09 15:34N 34°20' W 075°55'1413.6
2016-May-09 14:33N 34°30' W 075°44'1313.0
2016-May-09 13:32N 34°40' W 075°33'1412.3
2016-May-09 12:25N 34°50' W 075°22'1111.9
2016-May-09 11:30N 34°58' W 075°13'11713.0
2016-May-09 02:33N 36°51' W 075°50'1312.7
2016-May-09 01:34N 36°58' W 076°03'1412.8
2016-May-09 00:30N 36°57' W 076°20'2 1.8
2016-May-08 23:32N 36°56' W 076°20'0 0.0
2016-May-08 22:05N 36°56' W 076°20'0 0.0
2016-May-08 21:23N 36°56' W 076°20'0 0.0
2016-May-08 20:29N 36°56' W 076°20'0 0.0
2016-May-08 18:32N 36°56' W 076°20'0 0.0
2016-May-08 15:20N 36°56' W 076°20'2 2.1
2016-May-08 14:26N 36°57' W 076°20'1213.1
2016-May-08 13:33N 36°58' W 076°06'1111.0
2016-May-08 12:33N 36°54' W 075°53'8 7.2
2016-May-08 11:29N 36°49' W 075°45'12413.9
2016-May-08 02:33N 38°29' W 074°12'5216.1
2016-May-07 23:19N 39°19' W 073°53'1316.5
2016-May-07 22:33N 39°32' W 073°52'1616.4
2016-May-07 21:33N 39°48' W 073°51'3416.4
2016-May-07 19:29N 40°22' W 073°48'1111.9
2016-May-07 18:33N 40°31' W 073°58'1111.2
2016-May-07 17:33N 40°39' W 074°08'2 1.7
2016-May-07 16:32N 40°40' W 074°08'0 0.0
2016-May-07 15:32N 40°40' W 074°08'0 0.0
2016-May-07 14:32N 40°40' W 074°08'0 0.0
2016-May-07 13:32N 40°40' W 074°08'0 0.0
2016-May-07 12:32N 40°40' W 074°08'0 0.0
2016-May-07 11:32N 40°40' W 074°08'0 0.0
2016-May-07 10:32N 40°40' W 074°08'0 0.0
2016-May-07 09:32N 40°40' W 074°08'0 0.0
2016-May-07 08:32N 40°40' W 074°08'0 0.0
2016-May-07 07:32N 40°40' W 074°08'0 0.0
2016-May-07 06:32N 40°40' W 074°08'0 0.0
2016-May-07 05:32N 40°40' W 074°08'0 0.0
2016-May-07 04:32N 40°40' W 074°08'0 0.0
2016-May-07 03:32N 40°40' W 074°08'0 0.0
2016-May-07 02:32N 40°40' W 074°08'0 0.0
2016-May-07 01:29N 40°40' W 074°08'0 0.0
2016-May-07 00:32N 40°40' W 074°08'0 0.0
2016-May-06 23:32N 40°40' W 074°08'0 0.0
2016-May-06 22:32N 40°40' W 074°08'2 1.7
2016-May-06 21:33N 40°39' W 074°09'6 6.4
2016-May-06 20:33N 40°35' W 074°02'1212.0
2016-May-06 19:33N 40°28' W 073°49'  

Dump ship's entire track history